Time;durP1;ratioP1;P1;durP2;ratioP2;P2;SDS_P1;SDS_P2;PMS_P1;PMS_P2;Temp;Humidity;BMP_temperature;BMP_pressure;BME280_temperature;BME280_humidity;BME280_pressure;Samples;Min_cycle;Max_cycle;Signal;HPM_P1;HPM_P2
2022/01/15 00:01:46;;;;;;;85.20;3.97;;;6.40;99.90;;;;;;4132263;28;20062;-85
2022/01/15 00:03:47;;;;;;;56.30;3.10;;;7.20;99.90;;;;;;4146050;28;20065;-84
2022/01/15 00:05:47;;;;;;;45.10;2.58;;;6.40;99.90;;;;;;4164934;28;20042;-84
2022/01/15 00:07:48;;;;;;;55.65;2.75;;;6.50;99.90;;;;;;4151709;28;20066;-84
2022/01/15 00:09:50;;;;;;;56.78;2.35;;;7.90;99.90;;;;;;4145050;28;20054;-84
2022/01/15 00:11:52;;;;;;;37.75;1.63;;;7.50;99.90;;;;;;4135957;28;20088;-85
2022/01/15 00:13:58;;;;;;;14.18;1.52;;;6.50;99.90;;;;;;4146345;28;20057;-85
2022/01/15 00:16:08;;;;;;;23.77;1.30;;;7.50;99.90;;;;;;4155427;28;20108;-85
2022/01/15 00:18:14;;;;;;;11.10;1.50;;;7.10;99.90;;;;;;4114428;28;20475;-85
2022/01/15 00:20:19;;;;;;;25.95;1.58;;;7.20;99.90;;;;;;4136250;28;20042;-84
2022/01/15 00:22:20;;;;;;;33.40;1.65;;;6.90;99.90;;;;;;4147743;28;20048;-85
2022/01/15 00:24:22;;;;;;;14.45;1.33;;;7.10;99.90;;;;;;4112959;28;20082;-85
2022/01/15 00:26:23;;;;;;;12.35;1.20;;;7.20;99.90;;;;;;4130344;28;20054;-85
2022/01/15 00:28:23;;;;;;;17.05;1.30;;;6.40;99.90;;;;;;4130648;28;20471;-85
2022/01/15 00:30:25;;;;;;;7.63;1.08;;;6.40;99.90;;;;;;4114058;28;20063;-85
2022/01/15 00:32:26;;;;;;;9.27;1.17;;;7.80;99.90;;;;;;4148123;28;20124;-85
2022/01/15 00:34:28;;;;;;;10.82;1.25;;;6.40;99.90;;;;;;4129580;28;20580;-84
2022/01/15 00:36:29;;;;;;;15.60;1.25;;;5.90;99.90;;;;;;4131504;28;20054;-85
2022/01/15 00:38:30;;;;;;;19.90;1.20;;;7.70;99.90;;;;;;4130030;28;20050;-84
2022/01/15 00:40:31;;;;;;;14.82;1.10;;;6.40;99.90;;;;;;4130060;28;20053;-85
2022/01/15 00:42:34;;;;;;;1.20;0.75;;;7.50;99.90;;;;;;4129999;28;20081;-84
2022/01/15 00:44:36;;;;;;;4.65;0.68;;;7.30;99.90;;;;;;4130011;28;20055;-85
2022/01/15 00:46:37;;;;;;;4.85;0.88;;;6.40;99.90;;;;;;4130442;28;20125;-84
2022/01/15 00:48:38;;;;;;;5.05;0.93;;;7.30;99.90;;;;;;4129675;28;20085;-84
2022/01/15 00:50:38;;;;;;;4.28;0.77;;;7.50;99.90;;;;;;4130394;28;20057;-84
2022/01/15 00:52:41;;;;;;;2.92;0.70;;;7.60;99.90;;;;;;4130066;28;20049;-85
2022/01/15 00:54:42;;;;;;;6.45;0.95;;;7.40;99.90;;;;;;4130091;28;20061;-85
2022/01/15 00:56:43;;;;;;;7.30;0.63;;;7.50;99.90;;;;;;4128961;28;20046;-84
2022/01/15 00:58:43;;;;;;;4.93;0.75;;;6.40;99.90;;;;;;4129427;28;20096;-85
2022/01/15 01:00:45;;;;;;;5.13;0.68;;;7.60;99.90;;;;;;4129922;28;20057;-85
2022/01/15 01:02:47;;;;;;;8.05;0.98;;;6.40;99.90;;;;;;4131323;28;20507;-85
2022/01/15 01:04:48;;;;;;;2.40;0.80;;;7.50;99.90;;;;;;4129648;28;20124;-85
2022/01/15 01:06:48;;;;;;;4.32;0.50;;;6.60;99.90;;;;;;4131195;28;20098;-84
2022/01/15 01:08:49;;;;;;;3.88;0.70;;;6.40;99.90;;;;;;4130053;28;20054;-85
2022/01/15 01:13:15;;;;;;;19.50;1.10;;;6.70;99.90;;;;;;4132440;28;20058;-84
2022/01/15 01:20:12;;;;;;;28.02;1.98;;;6.30;99.90;;;;;;4132019;28;20403;-84
2022/01/15 01:22:54;;;;;;;56.05;2.13;;;6.30;99.90;;;;;;4133592;28;20061;-84
2022/01/15 01:24:40;;;;;;;37.92;2.03;;;6.50;99.90;;;;;;4133200;28;20140;-85
2022/01/15 01:26:49;;;;;;;42.67;1.90;;;6.20;99.90;;;;;;4131597;28;20050;-84
2022/01/15 01:29:01;;;;;;;21.08;1.63;;;6.20;99.90;;;;;;4128616;28;20162;-84
2022/01/15 01:31:11;;;;;;;35.10;1.40;;;6.50;99.90;;;;;;4134705;28;20569;-84
2022/01/15 01:33:29;;;;;;;22.80;1.75;;;7.00;99.90;;;;;;4133071;28;20182;-85
2022/01/15 01:37:37;;;;;;;49.58;1.70;;;6.10;99.90;;;;;;4134135;28;20095;-84
2022/01/15 01:41:54;;;;;;;45.63;2.05;;;6.40;99.90;;;;;;4131519;28;20050;-85
2022/01/15 01:43:59;;;;;;;38.47;1.65;;;6.10;99.90;;;;;;4131552;28;20105;-85
2022/01/15 01:46:34;;;;;;;22.88;1.33;;;5.80;99.90;;;;;;4133108;28;20061;-84
2022/01/15 01:48:21;;;;;;;25.10;1.17;;;6.70;99.90;;;;;;4133568;28;20046;-84
2022/01/15 01:50:25;;;;;;;59.13;2.17;;;6.10;99.90;;;;;;4132770;28;20050;-84
2022/01/15 01:52:28;;;;;;;21.45;1.10;;;6.10;99.90;;;;;;4133462;28;20499;-84
2022/01/15 01:54:29;;;;;;;22.77;1.23;;;6.10;99.90;;;;;;4134072;28;20054;-85
2022/01/15 01:56:30;;;;;;;43.38;1.80;;;6.50;99.90;;;;;;4132180;28;20060;-85
2022/01/15 01:58:30;;;;;;;36.35;1.20;;;6.00;99.90;;;;;;4115743;28;20487;-85
2022/01/15 02:00:32;;;;;;;24.90;1.23;;;6.00;99.90;;;;;;4130903;28;20046;-84
2022/01/15 02:02:33;;;;;;;43.65;1.65;;;6.70;99.90;;;;;;4133986;28;20049;-84
2022/01/15 02:04:34;;;;;;;42.40;1.73;;;6.80;99.90;;;;;;4133562;28;20038;-85
2022/01/15 02:06:35;;;;;;;52.50;1.85;;;6.00;99.90;;;;;;4133510;28;20050;-84
2022/01/15 02:08:37;;;;;;;18.17;0.88;;;6.00;99.90;;;;;;4116582;28;20053;-85
2022/01/15 02:10:38;;;;;;;20.35;1.27;;;6.00;99.90;;;;;;4133210;28;20042;-85
2022/01/15 02:12:40;;;;;;;42.75;1.40;;;6.20;99.90;;;;;;4116123;28;20092;-85
2022/01/15 02:14:42;;;;;;;28.95;1.08;;;7.40;99.90;;;;;;4133702;28;20042;-85
2022/01/15 02:16:43;;;;;;;39.30;1.20;;;6.00;99.90;;;;;;4131995;28;20085;-85
2022/01/15 02:18:43;;;;;;;12.25;0.85;;;6.40;99.90;;;;;;4132980;28;20043;-85
2022/01/15 02:25:08;;;;;;;34.13;1.75;;;7.00;99.90;;;;;;4133629;28;20498;-85
2022/01/15 02:27:09;;;;;;;16.52;0.70;;;6.00;99.90;;;;;;4132738;28;20050;-84
2022/01/15 02:29:09;;;;;;;20.85;1.33;;;6.40;99.90;;;;;;4116068;28;20062;-84
2022/01/15 02:31:16;;;;;;;9.27;0.70;;;5.90;99.90;;;;;;4132957;28;20077;-84
2022/01/15 02:33:16;;;;;;;6.82;0.55;;;6.70;99.90;;;;;;4115005;28;20054;-85
2022/01/15 02:35:17;;;;;;;3.90;0.45;;;5.90;99.90;;;;;;4131985;28;20059;-85
2022/01/15 02:37:18;;;;;;;4.20;0.30;;;5.90;99.90;;;;;;4133551;28;20063;-85
2022/01/15 02:39:18;;;;;;;8.27;0.50;;;5.90;99.90;;;;;;4133622;28;20147;-85
2022/01/15 02:41:31;;;;;;;1.63;0.52;;;5.90;99.90;;;;;;4132584;28;20477;-84
2022/01/15 02:43:34;;;;;;;2.33;0.50;;;5.80;99.90;;;;;;4133061;28;20046;-85
2022/01/15 02:45:35;;;;;;;1.70;0.60;;;5.90;99.90;;;;;;4131812;28;20057;-85
2022/01/15 02:49:55;;;;;;;0.50;0.30;;;6.20;99.90;;;;;;4132997;28;20093;-85
2022/01/15 02:51:56;;;;;;;1.00;0.35;;;5.90;99.90;;;;;;4131271;28;20472;-85
2022/01/15 02:53:57;;;;;;;1.30;0.45;;;6.10;99.90;;;;;;4131507;28;20495;-85
2022/01/15 02:55:57;;;;;;;1.08;0.50;;;5.90;99.90;;;;;;4131681;28;20519;-85
2022/01/15 02:57:59;;;;;;;0.75;0.32;;;5.90;99.90;;;;;;4131651;28;20054;-85
2022/01/15 03:00:00;;;;;;;0.82;0.50;;;5.90;99.90;;;;;;4131854;28;20046;-84
2022/01/15 03:02:01;;;;;;;0.77;0.40;;;5.90;99.90;;;;;;4131343;28;20470;-85
2022/01/15 03:04:03;;;;;;;1.45;0.55;;;5.90;99.90;;;;;;4131077;28;20101;-84
2022/01/15 03:06:12;;;;;;;0.90;0.50;;;5.90;99.90;;;;;;4131676;28;20049;-84
2022/01/15 03:08:13;;;;;;;0.90;0.55;;;5.90;99.90;;;;;;4131397;28;20081;-84
2022/01/15 03:10:14;;;;;;;1.00;0.45;;;5.90;99.90;;;;;;4132473;28;20164;-85
2022/01/15 03:12:15;;;;;;;1.60;0.57;;;5.90;99.90;;;;;;4131618;28;20052;-84
2022/01/15 03:14:19;;;;;;;0.77;0.40;;;5.90;99.90;;;;;;4131815;28;20057;-84
2022/01/15 03:16:21;;;;;;;1.95;0.60;;;5.90;99.90;;;;;;4131435;28;20046;-84
2022/01/15 03:18:22;;;;;;;1.13;0.60;;;6.50;99.90;;;;;;4115288;28;20078;-84
2022/01/15 03:20:23;;;;;;;0.85;0.45;;;6.10;99.90;;;;;;4131343;28;20042;-84
2022/01/15 03:22:23;;;;;;;1.00;0.50;;;5.90;99.90;;;;;;4131039;28;20046;-84
2022/01/15 03:24:24;;;;;;;1.75;0.68;;;5.90;99.90;;;;;;4131756;28;20047;-85
2022/01/15 03:26:25;;;;;;;0.90;0.40;;;5.90;99.90;;;;;;4130841;28;20050;-85
2022/01/15 03:28:26;;;;;;;1.42;0.68;;;5.90;99.90;;;;;;4130474;28;20038;-85
2022/01/15 03:30:28;;;;;;;0.82;0.38;;;5.90;99.90;;;;;;4132332;28;20049;-84
2022/01/15 03:32:29;;;;;;;0.98;0.50;;;6.30;99.90;;;;;;4131348;28;20038;-84
2022/01/15 03:34:30;;;;;;;1.02;0.57;;;6.10;99.90;;;;;;4130768;28;20058;-85
2022/01/15 03:36:32;;;;;;;2.45;0.50;;;6.50;99.90;;;;;;4131097;28;20038;-85
2022/01/15 03:38:33;;;;;;;0.65;0.30;;;5.90;99.90;;;;;;4131101;28;20119;-84
2022/01/15 03:40:35;;;;;;;4.90;0.50;;;5.90;99.90;;;;;;4131922;28;20046;-84
2022/01/15 03:42:35;;;;;;;0.45;0.25;;;5.90;99.90;;;;;;4105089;28;20057;-84
2022/01/15 03:44:42;;;;;;;0.63;0.35;;;5.90;99.90;;;;;;4132359;28;20121;-85
2022/01/15 03:46:43;;;;;;;0.55;0.20;;;5.90;99.90;;;;;;4131186;28;20105;-84
2022/01/15 03:48:46;;;;;;;0.90;0.35;;;5.90;99.90;;;;;;4131042;28;20133;-84
2022/01/15 03:50:47;;;;;;;0.55;0.30;;;5.90;99.90;;;;;;4130620;28;20527;-85
2022/01/15 03:52:48;;;;;;;0.93;0.32;;;6.00;99.90;;;;;;4130057;28;20129;-85
2022/01/15 03:54:48;;;;;;;0.60;0.28;;;5.90;99.90;;;;;;4130027;28;20161;-84
2022/01/15 03:56:49;;;;;;;3.72;0.50;;;5.90;99.90;;;;;;4114379;28;20661;-84
2022/01/15 03:58:50;;;;;;;14.35;0.65;;;7.00;99.90;;;;;;4113723;28;20147;-84
2022/01/15 04:00:51;;;;;;;0.30;0.20;;;5.90;99.90;;;;;;4131325;28;20046;-84
2022/01/15 04:02:53;;;;;;;0.70;0.25;;;6.70;99.90;;;;;;4131384;28;20050;-85
2022/01/15 04:04:57;;;;;;;0.30;0.20;;;5.90;99.90;;;;;;4130820;28;20043;-85
2022/01/15 04:06:57;;;;;;;0.60;0.30;;;5.90;99.90;;;;;;4131313;28;20443;-85
2022/01/15 04:08:59;;;;;;;0.57;0.28;;;6.00;99.90;;;;;;4130199;28;20046;-85
2022/01/15 04:10:59;;;;;;;3.95;0.40;;;5.80;99.90;;;;;;4114100;28;20038;-84
2022/01/15 04:13:00;;;;;;;16.92;1.20;;;5.80;99.90;;;;;;4130810;28;20057;-84
2022/01/15 04:15:01;;;;;;;0.95;0.35;;;6.00;99.90;;;;;;4130047;28;20129;-85
2022/01/15 04:17:02;;;;;;;3.15;0.45;;;5.80;99.90;;;;;;4131215;28;20561;-84
2022/01/15 04:19:06;;;;;;;1.42;0.40;;;5.90;99.90;;;;;;4113873;28;20073;-86
2022/01/15 04:21:11;;;;;;;7.97;0.73;;;5.90;99.90;;;;;;4112382;28;20043;-85
2022/01/15 04:23:11;;;;;;;6.45;0.82;;;7.00;99.90;;;;;;4130048;28;20132;-85
2022/01/15 04:25:12;;;;;;;6.30;0.82;;;6.20;99.90;;;;;;4130317;28;20119;-85
2022/01/15 04:27:14;;;;;;;4.55;0.50;;;6.00;99.90;;;;;;4131589;28;20052;-84
2022/01/15 04:29:16;;;;;;;4.18;0.68;;;6.30;99.90;;;;;;4125829;28;20717;-85
2022/01/15 04:31:18;;;;;;;1.92;0.50;;;5.90;99.90;;;;;;4128407;28;20129;-84
2022/01/15 04:33:18;;;;;;;9.18;1.20;;;6.10;99.90;;;;;;4129754;28;20121;-85
2022/01/15 04:35:19;;;;;;;12.57;0.70;;;5.80;99.90;;;;;;4124568;28;20499;-85
2022/01/15 04:37:23;;;;;;;6.68;0.47;;;6.00;99.90;;;;;;4113370;28;20057;-85
2022/01/15 04:39:23;;;;;;;4.88;0.50;;;5.70;99.90;;;;;;4115318;28;20055;-85
2022/01/15 04:41:24;;;;;;;1.20;0.40;;;6.10;99.90;;;;;;4129591;28;20054;-84
2022/01/15 04:43:26;;;;;;;3.70;0.60;;;5.70;99.90;;;;;;4130927;28;20050;-85
2022/01/15 04:45:27;;;;;;;1.40;0.60;;;5.70;99.90;;;;;;4129517;28;20043;-85
2022/01/15 04:47:27;;;;;;;1.45;0.60;;;5.70;99.90;;;;;;4131020;28;20050;-84
2022/01/15 04:49:28;;;;;;;2.30;0.68;;;5.70;99.90;;;;;;4130008;28;20046;-84
2022/01/15 04:51:29;;;;;;;1.80;0.80;;;5.70;99.90;;;;;;4129848;28;20455;-85
2022/01/15 04:53:29;;;;;;;0.80;0.50;;;5.70;99.90;;;;;;4130999;28;20038;-84
2022/01/15 04:55:30;;;;;;;1.63;0.52;;;5.00;99.90;;;;;;4130371;28;20423;-85
2022/01/15 04:57:31;;;;;;;1.75;0.70;;;6.20;99.90;;;;;;4130727;28;20053;-84
2022/01/15 04:59:32;;;;;;;1.33;0.80;;;7.10;99.90;;;;;;4129425;28;20137;-84
2022/01/15 05:01:33;;;;;;;2.13;0.70;;;5.70;99.90;;;;;;4130732;28;20054;-84
2022/01/15 05:03:34;;;;;;;1.55;0.50;;;5.70;99.90;;;;;;4119980;28;20361;-85
2022/01/15 05:05:34;;;;;;;2.85;0.50;;;5.80;99.90;;;;;;4131362;28;20455;-84
2022/01/15 05:07:35;;;;;;;3.00;0.85;;;5.80;99.90;;;;;;4129447;28;20046;-84
2022/01/15 05:09:36;;;;;;;1.83;0.57;;;5.80;99.90;;;;;;4130425;28;20056;-84
2022/01/15 05:11:49;;;;;;;1.60;0.85;;;5.80;99.90;;;;;;4145790;28;20038;-84
2022/01/15 05:13:50;;;;;;;2.20;0.82;;;6.10;99.90;;;;;;4113420;28;20062;-84
2022/01/15 05:15:50;;;;;;;1.33;0.60;;;5.70;99.90;;;;;;4121737;28;20046;-85
2022/01/15 05:17:51;;;;;;;1.95;0.93;;;6.40;99.90;;;;;;4129329;28;20498;-84
2022/01/15 05:19:52;;;;;;;2.58;0.60;;;5.80;99.90;;;;;;4128928;28;20469;-84
2022/01/15 05:21:57;;;;;;;4.35;1.17;;;5.70;99.90;;;;;;4134446;28;20050;-85
2022/01/15 05:23:58;;;;;;;5.05;0.88;;;5.70;99.90;;;;;;4141791;28;20042;-85
2022/01/15 05:25:59;;;;;;;3.95;1.10;;;5.70;99.90;;;;;;4115161;28;20484;-84
2022/01/15 05:28:00;;;;;;;2.75;1.05;;;5.70;99.90;;;;;;4118035;28;20043;-85
2022/01/15 05:30:03;;;;;;;4.18;0.90;;;5.70;99.90;;;;;;4133868;28;20046;-84
2022/01/15 05:32:04;;;;;;;3.78;0.95;;;5.80;99.90;;;;;;4145164;28;20117;-84
2022/01/15 05:34:05;;;;;;;3.05;0.90;;;5.70;99.90;;;;;;4134602;28;20066;-85
2022/01/15 05:36:06;;;;;;;1.98;0.70;;;5.80;99.90;;;;;;4116253;28;20042;-84
2022/01/15 05:38:06;;;;;;;3.22;1.10;;;6.10;99.90;;;;;;4128653;28;20092;-84
2022/01/15 05:40:08;;;;;;;2.03;0.80;;;5.80;99.90;;;;;;4130787;28;20038;-84
2022/01/15 05:42:09;;;;;;;2.30;0.98;;;5.80;99.90;;;;;;4131092;28;20177;-85
2022/01/15 05:44:10;;;;;;;3.38;1.02;;;5.70;99.90;;;;;;4130862;28;20046;-85
2022/01/15 05:46:11;;;;;;;2.63;0.75;;;5.20;99.90;;;;;;4130824;28;20042;-84
2022/01/15 05:48:12;;;;;;;3.65;0.80;;;7.00;99.90;;;;;;4129473;28;20053;-84
2022/01/15 05:50:13;;;;;;;3.10;0.75;;;6.70;99.90;;;;;;4128747;28;20085;-84
2022/01/15 05:52:14;;;;;;;1.80;0.73;;;7.00;99.90;;;;;;4129252;28;20106;-84
2022/01/15 05:54:15;;;;;;;3.30;0.93;;;6.40;99.90;;;;;;4129895;28;20051;-84
2022/01/15 05:56:16;;;;;;;1.23;0.60;;;7.20;99.90;;;;;;4111607;28;20050;-84
2022/01/15 05:58:16;;;;;;;2.40;0.75;;;5.80;99.90;;;;;;4129895;28;20073;-84
2022/01/15 06:00:18;;;;;;;2.20;0.77;;;6.50;99.90;;;;;;4127931;28;20462;-83
2022/01/15 06:02:20;;;;;;;2.47;0.77;;;7.10;99.90;;;;;;4129294;28;20053;-83
2022/01/15 06:04:21;;;;;;;1.73;0.85;;;6.30;99.90;;;;;;4130643;28;20042;-83
2022/01/15 06:06:22;;;;;;;5.88;1.50;;;5.20;99.90;;;;;;4130482;28;20090;-83
2022/01/15 06:08:23;;;;;;;2.15;0.80;;;6.30;99.90;;;;;;4115928;28;20145;-83
2022/01/15 06:10:25;;;;;;;1.75;0.88;;;6.40;99.90;;;;;;4133837;28;20038;-83
2022/01/15 06:12:30;;;;;;;4.05;1.58;;;5.90;99.90;;;;;;4132703;28;20638;-83
2022/01/15 06:14:32;;;;;;;2.08;0.80;;;5.80;99.90;;;;;;4133951;28;20042;-83
2022/01/15 06:16:33;;;;;;;1.98;1.30;;;7.10;99.90;;;;;;4132299;28;20089;-83
2022/01/15 06:18:33;;;;;;;9.02;1.20;;;7.20;99.90;;;;;;4132891;28;20042;-82
2022/01/15 06:20:34;;;;;;;3.92;1.13;;;5.80;99.90;;;;;;4133676;28;20043;-83
2022/01/15 06:22:35;;;;;;;4.35;1.45;;;5.80;99.90;;;;;;4116138;28;20051;-83
2022/01/15 06:24:36;;;;;;;3.22;1.20;;;6.70;99.90;;;;;;4133690;28;20501;-83
2022/01/15 06:26:36;;;;;;;2.60;1.20;;;7.20;99.90;;;;;;4133464;28;20049;-83
2022/01/15 06:28:37;;;;;;;4.55;1.35;;;6.90;99.90;;;;;;4133481;28;20046;-83
2022/01/15 06:30:38;;;;;;;3.97;1.52;;;5.80;99.90;;;;;;4131673;28;20050;-83
2022/01/15 06:32:38;;;;;;;4.60;1.60;;;6.70;99.90;;;;;;4133597;28;20050;-83
2022/01/15 06:34:40;;;;;;;3.65;1.30;;;5.90;99.90;;;;;;4130867;28;20549;-84
2022/01/15 06:36:41;;;;;;;3.20;1.50;;;6.10;99.90;;;;;;4133688;28;20047;-84
2022/01/15 06:38:42;;;;;;;2.97;1.23;;;6.00;99.90;;;;;;4132016;28;20050;-84
2022/01/15 06:40:43;;;;;;;4.85;1.50;;;5.80;99.90;;;;;;4132009;28;20072;-83
2022/01/15 06:42:43;;;;;;;3.65;1.40;;;5.80;99.90;;;;;;4131634;28;20046;-84
2022/01/15 06:44:44;;;;;;;2.45;1.38;;;6.60;99.90;;;;;;4132235;28;20046;-84
2022/01/15 06:46:45;;;;;;;3.45;1.45;;;6.80;99.90;;;;;;4133164;28;20046;-85
2022/01/15 06:48:45;;;;;;;4.20;1.63;;;5.80;99.90;;;;;;4115815;28;20126;-84
2022/01/15 06:50:46;;;;;;;2.10;1.00;;;6.50;99.90;;;;;;4131887;28;20046;-84
2022/01/15 06:52:47;;;;;;;3.58;1.38;;;6.50;99.90;;;;;;4132712;28;20042;-84
2022/01/15 06:54:48;;;;;;;3.40;1.45;;;6.80;99.90;;;;;;4133011;28;20050;-84
2022/01/15 06:56:49;;;;;;;3.60;1.17;;;5.80;99.90;;;;;;4132140;28;20450;-84
2022/01/15 06:58:50;;;;;;;3.55;1.38;;;5.80;99.90;;;;;;4132272;28;20575;-84
2022/01/15 07:00:51;;;;;;;2.88;1.25;;;5.80;99.90;;;;;;4133181;28;20100;-84
2022/01/15 07:02:52;;;;;;;2.10;0.93;;;6.90;99.90;;;;;;4134045;28;20050;-84
2022/01/15 07:04:52;;;;;;;7.60;1.70;;;6.30;99.90;;;;;;4133494;28;20050;-84
2022/01/15 07:06:53;;;;;;;6.68;2.38;;;6.00;99.90;;;;;;4133239;28;20538;-84
2022/01/15 07:08:54;;;;;;;3.47;1.08;;;7.00;99.90;;;;;;4144686;28;20137;-83
2022/01/15 07:10:54;;;;;;;3.13;1.05;;;6.70;99.90;;;;;;4146043;28;20053;-83
2022/01/15 07:12:55;;;;;;;5.53;1.42;;;7.30;99.90;;;;;;4147818;28;20071;-83
2022/01/15 07:14:56;;;;;;;3.35;1.20;;;6.70;99.90;;;;;;4145913;28;20439;-83
2022/01/15 07:16:57;;;;;;;2.85;1.23;;;6.70;99.90;;;;;;4137881;28;20046;-84
2022/01/15 07:18:58;;;;;;;3.17;1.23;;;6.20;99.90;;;;;;4130552;28;20058;-84
2022/01/15 07:20:58;;;;;;;2.42;0.93;;;6.70;99.90;;;;;;4133266;28;20479;-84
2022/01/15 07:22:59;;;;;;;4.28;1.20;;;6.40;99.90;;;;;;4130155;28;20054;-84
2022/01/15 07:25:00;;;;;;;3.80;1.77;;;6.20;99.90;;;;;;4132544;28;20042;-84
2022/01/15 07:27:01;;;;;;;3.40;1.10;;;6.70;99.90;;;;;;4132716;28;20038;-84
2022/01/15 07:29:04;;;;;;;15.60;2.55;;;5.70;99.90;;;;;;4132485;28;20052;-84
2022/01/15 07:31:05;;;;;;;2.25;1.40;;;5.70;99.90;;;;;;4131642;28;20050;-84
2022/01/15 07:33:06;;;;;;;3.80;1.00;;;5.70;99.90;;;;;;4131024;28;20042;-84
2022/01/15 07:35:09;;;;;;;3.45;1.25;;;6.90;99.90;;;;;;4131129;28;20049;-84
2022/01/15 07:37:10;;;;;;;1.92;0.77;;;5.80;99.90;;;;;;4131151;28;20170;-84
2022/01/15 07:39:10;;;;;;;2.15;0.98;;;6.90;99.90;;;;;;4130742;28;20512;-84
2022/01/15 07:41:13;;;;;;;4.07;1.23;;;6.90;99.90;;;;;;4131430;28;20058;-84
2022/01/15 07:43:14;;;;;;;2.80;1.25;;;6.70;99.90;;;;;;4131919;28;20121;-87
2022/01/15 07:45:16;;;;;;;2.72;1.20;;;5.70;99.90;;;;;;4131589;28;20057;-84
2022/01/15 07:47:17;;;;;;;7.13;0.90;;;6.80;99.90;;;;;;4132601;28;20050;-84
2022/01/15 07:49:18;;;;;;;2.25;1.15;;;6.20;99.90;;;;;;4132463;28;20037;-85
2022/01/15 07:51:19;;;;;;;3.55;1.40;;;5.70;99.90;;;;;;4130857;28;20169;-84
2022/01/15 07:53:20;;;;;;;4.90;1.20;;;6.90;99.90;;;;;;4132882;28;20085;-84
2022/01/15 07:55:22;;;;;;;2.75;1.40;;;6.20;99.90;;;;;;4131132;28;20226;-84
2022/01/15 07:57:24;;;;;;;3.28;1.30;;;7.10;99.90;;;;;;4115466;28;20046;-84
2022/01/15 07:59:26;;;;;;;2.90;1.13;;;5.70;99.90;;;;;;4131341;28;20505;-84
2022/01/15 08:01:28;;;;;;;2.97;1.20;;;6.40;99.90;;;;;;4132704;28;20081;-84
2022/01/15 08:03:28;;;;;;;3.13;1.23;;;6.70;99.90;;;;;;4131531;28;20122;-85
2022/01/15 08:05:30;;;;;;;5.35;1.30;;;6.70;99.90;;;;;;4131373;28;20053;-84
2022/01/15 08:07:30;;;;;;;2.85;1.10;;;5.70;99.90;;;;;;4146032;28;20046;-84
2022/01/15 08:09:31;;;;;;;3.50;1.23;;;6.40;99.90;;;;;;4146193;28;20057;-84
2022/01/15 08:11:32;;;;;;;3.65;1.20;;;7.00;99.90;;;;;;4116512;28;20050;-85
2022/01/15 08:13:33;;;;;;;1.80;0.98;;;7.10;99.90;;;;;;4123018;28;20104;-84
2022/01/15 08:15:35;;;;;;;2.30;1.00;;;6.00;99.90;;;;;;4131396;28;20169;-85
2022/01/15 08:17:36;;;;;;;2.47;0.93;;;5.60;99.90;;;;;;4132710;28;20046;-84
2022/01/15 08:19:36;;;;;;;2.90;0.90;;;6.60;99.90;;;;;;4132060;28;20050;-84
2022/01/15 08:21:37;;;;;;;2.72;1.27;;;6.40;99.90;;;;;;4131776;28;20042;-84
2022/01/15 08:23:38;;;;;;;2.92;1.08;;;6.50;99.90;;;;;;4131276;28;20054;-84
2022/01/15 08:25:39;;;;;;;3.03;1.20;;;5.60;99.90;;;;;;4133045;28;20050;-84
2022/01/15 08:27:41;;;;;;;2.63;0.93;;;5.60;99.90;;;;;;4135986;28;20050;-84
2022/01/15 08:29:41;;;;;;;4.03;1.00;;;6.40;99.90;;;;;;4135027;28;20046;-84
2022/01/15 08:31:42;;;;;;;2.03;0.93;;;7.00;99.90;;;;;;4131641;28;20129;-84
2022/01/15 08:33:43;;;;;;;3.80;0.95;;;6.30;99.90;;;;;;4142516;28;20533;-84
2022/01/15 08:35:44;;;;;;;3.22;1.20;;;6.80;99.90;;;;;;4151384;28;20058;-84
2022/01/15 08:37:45;;;;;;;2.85;1.00;;;5.60;99.90;;;;;;4131106;28;20049;-85
2022/01/15 08:39:46;;;;;;;3.13;1.23;;;7.10;99.90;;;;;;4140546;28;20089;-85
2022/01/15 08:41:48;;;;;;;3.15;1.42;;;5.80;99.90;;;;;;4149593;28;20120;-84
2022/01/15 08:43:50;;;;;;;2.60;1.15;;;6.40;99.90;;;;;;4132375;28;20383;-84
2022/01/15 08:45:51;;;;;;;4.80;1.05;;;5.60;99.90;;;;;;4145473;28;20045;-84
2022/01/15 08:47:53;;;;;;;2.95;1.00;;;5.60;99.90;;;;;;4134270;28;20221;-85
2022/01/15 08:49:55;;;;;;;1.88;1.00;;;5.60;99.90;;;;;;4150471;28;20410;-84
2022/01/15 08:51:56;;;;;;;2.15;0.80;;;6.70;99.90;;;;;;4132141;28;20113;-84
2022/01/15 08:53:57;;;;;;;2.45;1.10;;;6.90;99.90;;;;;;4134235;28;20522;-84
2022/01/15 08:55:58;;;;;;;3.95;1.00;;;5.60;99.90;;;;;;4148013;28;20046;-84
2022/01/15 08:58:00;;;;;;;1.98;0.82;;;5.60;99.90;;;;;;4114732;28;20043;-84
2022/01/15 09:00:05;;;;;;;2.40;1.02;;;6.00;99.90;;;;;;4130319;28;20414;-83
2022/01/15 09:02:06;;;;;;;3.40;1.17;;;5.50;99.90;;;;;;4148821;28;20053;-83
2022/01/15 09:04:07;;;;;;;2.88;1.23;;;6.90;99.90;;;;;;4148103;28;20048;-84
2022/01/15 09:06:08;;;;;;;4.53;1.48;;;6.30;99.90;;;;;;4148325;28;20077;-84
2022/01/15 09:08:09;;;;;;;5.93;1.02;;;6.60;99.90;;;;;;4114934;28;20074;-84
2022/01/15 09:10:10;;;;;;;2.55;1.17;;;6.20;99.90;;;;;;4147585;28;20092;-84
2022/01/15 09:12:11;;;;;;;2.72;1.10;;;5.50;99.90;;;;;;4131286;28;20054;-83
2022/01/15 09:14:12;;;;;;;2.08;1.00;;;5.80;99.90;;;;;;4148794;28;20491;-84
2022/01/15 09:16:22;;;;;;;1.85;1.00;;;5.50;99.90;;;;;;4148425;28;20056;-84
2022/01/15 09:18:24;;;;;;;2.17;1.45;;;5.50;99.90;;;;;;4146414;28;20041;-83
2022/01/15 09:20:25;;;;;;;3.03;0.90;;;5.50;99.90;;;;;;4114661;28;20140;-84
2022/01/15 09:22:26;;;;;;;1.92;1.00;;;5.50;99.90;;;;;;4114278;28;20186;-84
2022/01/15 09:24:26;;;;;;;2.92;1.15;;;5.50;99.90;;;;;;4148251;28;20514;-84
2022/01/15 09:31:07;;;;;;;1.92;1.00;;;6.30;99.90;;;;;;4148237;28;20049;-83
2022/01/15 09:33:08;;;;;;;2.70;1.48;;;5.60;99.90;;;;;;4146693;28;20125;-84
2022/01/15 09:35:09;;;;;;;2.85;0.90;;;6.20;99.90;;;;;;4146329;28;20129;-84
2022/01/15 09:37:10;;;;;;;2.08;0.90;;;5.50;99.90;;;;;;4129882;28;20046;-84
2022/01/15 09:39:12;;;;;;;4.53;1.02;;;5.60;99.90;;;;;;4130868;28;20058;-83
2022/01/15 09:41:14;;;;;;;3.58;1.08;;;6.10;99.90;;;;;;4130145;28;20420;-83
2022/01/15 09:43:15;;;;;;;2.67;1.00;;;5.60;99.90;;;;;;4117002;28;20042;-84
2022/01/15 09:45:18;;;;;;;3.33;0.95;;;5.90;99.90;;;;;;4133670;28;20050;-84
2022/01/15 09:47:22;;;;;;;3.35;1.15;;;6.50;99.90;;;;;;4133201;28;20487;-83
2022/01/15 09:49:26;;;;;;;3.75;0.95;;;5.50;99.90;;;;;;4150715;28;20077;-84
2022/01/15 09:51:27;;;;;;;5.70;1.40;;;5.50;99.90;;;;;;4149779;28;20050;-83
2022/01/15 09:53:29;;;;;;;5.30;1.08;;;5.70;99.90;;;;;;4149960;28;20108;-84
2022/01/15 09:55:31;;;;;;;3.97;1.63;;;6.00;99.90;;;;;;4133018;28;20134;-84
2022/01/15 09:57:34;;;;;;;3.97;1.25;;;5.90;99.90;;;;;;4150669;28;20482;-84
2022/01/15 09:59:36;;;;;;;4.65;1.15;;;6.60;99.90;;;;;;4151120;28;20042;-83
2022/01/15 10:01:36;;;;;;;3.20;0.93;;;5.50;99.90;;;;;;4148883;28;20058;-84
2022/01/15 10:03:38;;;;;;;7.07;1.40;;;6.10;99.90;;;;;;4163498;28;20047;-83
2022/01/15 10:05:39;;;;;;;3.72;1.65;;;5.50;99.90;;;;;;4100844;28;20051;-84
2022/01/15 10:07:54;;;;;;;3.20;1.35;;;5.50;99.90;;;;;;4149776;28;20506;-84
2022/01/15 10:09:55;;;;;;;5.25;1.67;;;6.70;99.90;;;;;;4149828;28;20042;-84
2022/01/15 10:11:56;;;;;;;3.80;1.35;;;6.80;99.90;;;;;;4132869;28;20125;-84
2022/01/15 10:13:57;;;;;;;5.35;1.83;;;6.90;99.90;;;;;;4133292;28;20058;-84
2022/01/15 10:15:57;;;;;;;4.97;1.75;;;6.80;99.90;;;;;;4150593;28;20038;-84
2022/01/15 10:17:58;;;;;;;6.28;2.00;;;6.20;99.90;;;;;;4150704;28;20843;-84
2022/01/15 10:20:01;;;;;;;4.80;1.58;;;6.20;99.90;;;;;;4150695;28;20167;-83
2022/01/15 10:22:10;;;;;;;5.15;2.03;;;5.70;99.90;;;;;;4150708;28;20180;-84
2022/01/15 10:24:13;;;;;;;5.18;1.73;;;5.50;99.90;;;;;;4137130;28;20053;-84
2022/01/15 10:26:18;;;;;;;7.50;2.05;;;7.00;99.90;;;;;;4153912;28;20517;-83
2022/01/15 10:28:19;;;;;;;6.28;2.30;;;6.60;99.90;;;;;;4133277;28;20043;-84
2022/01/15 10:30:19;;;;;;;6.53;2.40;;;5.40;99.90;;;;;;4150612;28;20134;-84
2022/01/15 10:32:21;;;;;;;5.82;2.88;;;6.30;99.90;;;;;;4133153;28;20050;-84
2022/01/15 10:34:28;;;;;;;6.55;2.47;;;6.60;99.90;;;;;;4149836;28;20058;-84
2022/01/15 10:36:32;;;;;;;13.80;2.65;;;4.50;99.90;;;;;;4132815;28;20056;-85
2022/01/15 10:38:34;;;;;;;8.93;3.05;;;5.50;99.90;;;;;;4133015;28;20050;-84
2022/01/15 10:40:55;;;;;;;8.35;2.70;;;5.60;99.90;;;;;;4116066;28;20052;-84
2022/01/15 10:42:59;;;;;;;8.40;2.45;;;5.60;99.90;;;;;;4117118;28;20126;-84
2022/01/15 10:45:11;;;;;;;11.52;3.30;;;6.60;99.90;;;;;;4150924;28;20046;-84
2022/01/15 10:47:16;;;;;;;9.40;3.35;;;5.60;99.90;;;;;;4134072;28;20054;-84
2022/01/15 10:49:24;;;;;;;10.40;3.17;;;5.60;99.90;;;;;;4133084;28;20109;-84
2022/01/15 10:51:25;;;;;;;8.65;3.40;;;6.80;99.90;;;;;;4150550;28;20045;-85
2022/01/15 10:53:47;;;;;;;8.15;2.75;;;4.50;99.90;;;;;;4131945;28;20162;-85
2022/01/15 10:55:51;;;;;;;8.40;3.17;;;5.60;99.90;;;;;;4158885;28;20038;-89
2022/01/15 10:58:04;;;;;;;8.32;3.55;;;5.00;99.90;;;;;;4160319;28;20136;-85
2022/01/15 11:00:08;;;;;;;7.70;2.80;;;5.60;99.90;;;;;;4150081;28;20046;-84
2022/01/15 11:02:19;;;;;;;7.93;3.38;;;5.60;99.90;;;;;;4133464;28;20151;-88
2022/01/15 11:04:34;;;;;;;10.77;3.92;;;5.60;99.90;;;;;;4111837;28;20052;-84
2022/01/15 11:06:39;;;;;;;9.07;3.70;;;6.40;99.90;;;;;;4132663;28;20057;-83